Time;durP1;ratioP1;P1;durP2;ratioP2;P2;SDS_P1;SDS_P2;PMS_P1;PMS_P2;Temp;Humidity;BMP_temperature;BMP_pressure;BME280_temperature;BME280_humidity;BME280_pressure;Samples;Min_cycle;Max_cycle;Signal;HPM_P1;HPM_P2
2021/03/03 07:33:32;;;;;;;17.90;14.23;;;2.90;99.90;;;;;;6148335;23;20911;-71
2021/03/03 07:36:00;;;;;;;19.08;15.18;;;3.60;99.90;;;;;;6154282;23;20847;-70
2021/03/03 07:38:30;;;;;;;22.75;16.75;;;3.60;99.90;;;;;;6154556;23;20423;-71
2021/03/03 07:41:01;;;;;;;21.65;16.10;;;3.70;99.90;;;;;;6154630;23;20400;-71
2021/03/03 07:43:30;;;;;;;20.43;15.73;;;3.80;99.90;;;;;;6128627;23;20923;-71
2021/03/03 07:45:58;;;;;;;22.65;16.25;;;3.80;99.90;;;;;;6154507;23;20484;-71
2021/03/03 07:48:26;;;;;;;23.48;17.15;;;3.80;99.90;;;;;;6154476;23;20394;-70
2021/03/03 07:50:53;;;;;;;27.98;20.08;;;3.80;99.90;;;;;;6154465;23;20397;-71
2021/03/03 07:53:19;;;;;;;23.65;17.98;;;;;;;;;;6154472;23;20361;-69
2021/03/03 07:55:46;;;;;;;24.57;18.73;;;;;;;;;;6154760;23;20363;-70
2021/03/03 07:58:12;;;;;;;23.47;17.10;;;;;;;;;;6154330;23;20373;-70
2021/03/03 08:00:41;;;;;;;26.77;18.90;;;;;;;;;;6128255;23;20394;-70
2021/03/03 08:03:07;;;;;;;21.27;16.88;;;;;;;;;;6154373;23;20403;-70
2021/03/03 08:05:36;;;;;;;27.05;19.85;;;;;;;;;;6154439;23;20846;-70
2021/03/03 08:08:26;;;;;;;26.73;20.20;;;;;;;;;;6154412;23;20399;-71
2021/03/03 08:11:13;;;;;;;28.70;18.90;;;;;;;;;;6128201;23;20381;-70
2021/03/03 08:13:40;;;;;;;26.67;19.23;;;;;;;;;;6154427;23;20362;-70
2021/03/03 08:16:07;;;;;;;30.67;23.17;;;;;;;;;;6154307;23;20391;-70
2021/03/03 08:18:34;;;;;;;33.33;23.08;;;;;;;;;;6128083;23;20371;-70
2021/03/03 08:21:01;;;;;;;33.08;23.98;;;;;;;;;;6154242;23;20363;-70
2021/03/03 08:23:57;;;;;;;24.80;18.55;;;;;;;;;;6154234;23;20397;-71
2021/03/03 08:26:40;;;;;;;24.70;18.30;;;;;;;;;;6064371;23;20404;-70
2021/03/03 08:29:30;;;;;;;26.47;18.80;;;;;;;;;;6132232;23;20454;-70
2021/03/03 08:32:15;;;;;;;22.23;17.65;;;;;;;;;;6099641;23;20371;-70
2021/03/03 08:34:52;;;;;;;24.52;18.73;;;;;;;;;;6127938;23;20401;-70
2021/03/03 08:37:28;;;;;;;23.25;17.67;;;;;;;;;;6154146;23;20383;-70
2021/03/03 08:39:54;;;;;;;22.02;16.80;;;3.80;99.90;;;;;;6128198;23;20394;-70
2021/03/03 08:42:35;;;;;;;21.33;15.82;;;6.40;99.90;;;;;;6128178;23;20402;-70
2021/03/03 08:45:04;;;;;;;20.63;16.00;;;;;;;;;;6154456;23;20367;-70
2021/03/03 08:48:03;;;;;;;21.95;16.83;;;;;;;;;;6154177;23;20884;-70
2021/03/03 08:50:54;;;;;;;18.63;14.40;;;6.50;99.90;;;;;;6128184;23;20381;-70
2021/03/03 08:53:22;;;;;;;18.63;14.40;;;6.70;99.90;;;;;;6154109;23;20684;-70
2021/03/03 08:55:49;;;;;;;19.42;15.07;;;6.90;99.90;;;;;;6154127;23;20819;-71
2021/03/03 08:58:57;;;;;;;20.73;15.10;;;7.00;99.90;;;;;;6154250;23;20475;-70
2021/03/03 09:01:38;;;;;;;20.38;14.15;;;;;;;;;;6154111;23;20363;-70
2021/03/03 09:04:04;;;;;;;19.00;14.07;;;;;;;;;;6115211;23;20731;-71
2021/03/03 09:06:33;;;;;;;17.48;12.95;;;;;;;;;;6153566;23;20441;-70
2021/03/03 09:08:59;;;;;;;18.05;13.98;;;;;;;;;;6154035;23;20843;-70
2021/03/03 09:11:26;;;;;;;18.88;13.75;;;;;;;;;;6155462;23;20739;-70
2021/03/03 09:13:55;;;;;;;18.40;14.40;;;7.40;99.90;;;;;;6155832;23;20446;-70
2021/03/03 09:16:21;;;;;;;23.15;14.82;;;7.80;98.10;;;;;;6155774;23;20470;-71
2021/03/03 09:19:05;;;;;;;24.67;15.48;;;7.80;97.20;;;;;;6155897;23;20359;-71
2021/03/03 09:21:32;;;;;;;19.48;14.45;;;7.80;97.80;;;;;;6155866;23;20359;-70
2021/03/03 09:24:08;;;;;;;19.50;14.65;;;;;;;;;;6155797;23;20371;-70
2021/03/03 09:26:35;;;;;;;20.67;15.20;;;7.90;97.40;;;;;;6155946;23;20363;-70
2021/03/03 09:29:00;;;;;;;20.80;14.27;;;8.00;96.50;;;;;;6155814;23;20363;-70
2021/03/03 09:31:31;;;;;;;18.43;13.10;;;8.00;94.60;;;;;;6155782;23;20359;-70
2021/03/03 09:33:57;;;;;;;19.77;12.97;;;8.10;94.70;;;;;;6155559;23;20387;-71
2021/03/03 09:36:23;;;;;;;19.08;13.27;;;;;;;;;;6155539;23;20755;-71
2021/03/03 09:38:58;;;;;;;15.30;11.05;;;8.20;94.50;;;;;;6155750;23;20398;-70
2021/03/03 09:41:25;;;;;;;16.08;11.45;;;8.80;94.10;;;;;;6129625;23;20385;-70
2021/03/03 09:43:59;;;;;;;15.05;10.70;;;8.80;93.20;;;;;;6155714;23;20433;-70
2021/03/03 09:46:25;;;;;;;15.57;11.13;;;9.00;92.10;;;;;;6155508;23;20410;-70
2021/03/03 09:48:51;;;;;;;20.93;13.57;;;9.10;91.30;;;;;;6155700;23;20415;-70
2021/03/03 09:51:17;;;;;;;20.35;13.07;;;9.10;91.30;;;;;;6155499;23;20367;-70
2021/03/03 09:53:51;;;;;;;17.38;13.13;;;9.20;92.00;;;;;;6155393;23;20842;-70
2021/03/03 09:56:29;;;;;;;16.57;12.03;;;;;;;;;;6155328;23;20387;-70
2021/03/03 09:58:57;;;;;;;17.80;12.20;;;9.30;91.10;;;;;;6129458;23;20431;-70
2021/03/03 10:01:24;;;;;;;18.17;11.90;;;9.80;92.40;;;;;;6155439;23;20690;-70
2021/03/03 10:03:53;;;;;;;17.55;11.80;;;10.10;96.80;;;;;;6155231;23;20732;-70
2021/03/03 10:06:20;;;;;;;21.10;13.13;;;;;;;;;;6129304;23;20426;-70
2021/03/03 10:08:46;;;;;;;19.70;12.52;;;10.30;97.70;;;;;;6155363;23;20458;-71
2021/03/03 10:11:12;;;;;;;19.13;12.60;;;10.30;87.40;;;;;;6155542;23;20417;-70
2021/03/03 10:13:42;;;;;;;19.40;12.77;;;10.40;86.30;;;;;;6155455;23;20367;-71
2021/03/03 10:16:15;;;;;;;19.05;12.35;;;10.70;90.00;;;;;;6154985;23;20363;-70
2021/03/03 10:18:56;;;;;;;20.23;13.07;;;10.70;81.30;;;;;;6155322;23;20394;-70
2021/03/03 10:21:22;;;;;;;19.75;11.57;;;10.80;81.60;;;;;;6155532;23;20418;-71
2021/03/03 10:23:48;;;;;;;19.43;11.63;;;10.70;78.70;;;;;;6155228;23;20367;-71
2021/03/03 10:26:14;;;;;;;21.37;12.30;;;10.90;76.70;;;;;;6155047;23;20800;-70
2021/03/03 10:28:41;;;;;;;22.35;12.70;;;11.30;91.60;;;;;;6155001;23;20387;-71
2021/03/03 10:31:15;;;;;;;18.50;12.52;;;11.10;71.80;;;;;;6154560;23;20384;-71
2021/03/03 10:33:42;;;;;;;17.97;11.53;;;11.30;70.60;;;;;;6155019;23;20429;-71
2021/03/03 10:36:16;;;;;;;20.25;12.52;;;11.30;73.90;;;;;;6155048;23;20371;-71
2021/03/03 10:38:44;;;;;;;18.67;12.43;;;11.40;71.80;;;;;;6129039;23;20391;-71
2021/03/03 10:41:20;;;;;;;19.35;12.18;;;11.40;72.30;;;;;;6155024;23;20359;-71
2021/03/03 10:43:49;;;;;;;17.85;11.48;;;11.60;72.20;;;;;;6129090;23;20378;-71
2021/03/03 10:46:16;;;;;;;21.02;13.13;;;11.70;72.30;;;;;;6154914;23;20359;-71
2021/03/03 10:48:43;;;;;;;20.95;12.55;;;11.70;71.40;;;;;;6155051;23;20410;-70
2021/03/03 10:51:11;;;;;;;22.05;13.55;;;11.80;72.00;;;;;;6155031;23;20662;-71
2021/03/03 10:53:47;;;;;;;19.60;13.38;;;12.50;74.00;;;;;;6155050;23;20369;-70
2021/03/03 10:56:24;;;;;;;23.83;14.13;;;12.00;70.10;;;;;;6128746;23;20391;-71
2021/03/03 10:58:51;;;;;;;22.90;13.93;;;11.90;71.00;;;;;;6154773;23;20420;-70
2021/03/03 11:01:18;;;;;;;22.80;16.40;;;;;;;;;;6154930;23;20418;-70
2021/03/03 11:03:53;;;;;;;26.17;18.45;;;12.10;72.40;;;;;;6128610;23;20699;-71
2021/03/03 11:06:19;;;;;;;28.15;19.02;;;12.30;71.80;;;;;;6154781;23;20359;-70
2021/03/03 11:08:45;;;;;;;25.25;18.60;;;12.40;72.20;;;;;;6128640;23;20377;-71
2021/03/03 11:11:12;;;;;;;35.95;24.80;;;12.50;72.30;;;;;;6154759;23;20363;-70
2021/03/03 11:13:38;;;;;;;33.10;23.48;;;12.50;77.10;;;;;;6154776;23;20377;-70
2021/03/03 11:16:05;;;;;;;32.73;23.50;;;12.80;76.60;;;;;;6154626;23;20366;-71
2021/03/03 11:18:31;;;;;;;34.58;24.05;;;13.00;86.50;;;;;;6128503;23;20383;-71
2021/03/03 11:20:57;;;;;;;36.20;26.70;;;12.80;77.10;;;;;;6154717;23;20365;-71
2021/03/03 11:23:23;;;;;;;33.65;23.73;;;12.70;75.60;;;;;;6128516;23;20894;-71
2021/03/03 11:25:49;;;;;;;32.87;25.47;;;12.80;77.10;;;;;;6154470;23;20453;-71
2021/03/03 11:28:15;;;;;;;40.78;27.08;;;12.90;78.00;;;;;;6154482;23;20823;-71
2021/03/03 11:30:41;;;;;;;34.67;26.38;;;13.00;79.90;;;;;;6128299;23;20429;-71
2021/03/03 11:33:08;;;;;;;40.05;28.52;;;;;;;;;;6154049;23;20358;-71
2021/03/03 11:35:34;;;;;;;48.30;32.63;;;;;;;;;;6154171;23;20702;-71
2021/03/03 11:38:00;;;;;;;53.60;35.22;;;13.30;80.30;;;;;;6128267;23;20759;-71
2021/03/03 11:40:26;;;;;;;60.78;41.33;;;12.70;80.50;;;;;;6154475;23;20359;-71
2021/03/03 11:42:52;;;;;;;42.47;31.00;;;12.40;82.30;;;;;;6154374;23;20438;-71
2021/03/03 11:45:18;;;;;;;45.53;32.17;;;12.60;82.40;;;;;;6153944;23;20420;-71
2021/03/03 11:47:44;;;;;;;43.85;31.05;;;12.70;81.90;;;;;;6153474;23;20398;-71
2021/03/03 11:50:12;;;;;;;45.17;31.90;;;12.50;84.70;;;;;;6154363;23;20845;-71
2021/03/03 11:52:37;;;;;;;42.60;30.25;;;12.90;84.00;;;;;;6153833;23;20823;-71
2021/03/03 11:55:04;;;;;;;42.67;28.48;;;13.10;83.50;;;;;;6153819;23;20369;-70
2021/03/03 11:57:30;;;;;;;39.00;27.10;;;13.00;82.00;;;;;;6127571;23;20387;-70
2021/03/03 11:59:56;;;;;;;35.22;25.23;;;12.70;79.30;;;;;;6153657;23;20359;-71
2021/03/03 12:02:22;;;;;;;36.88;26.05;;;12.90;79.90;;;;;;6153500;23;20657;-70
2021/03/03 12:04:48;;;;;;;36.33;25.97;;;12.80;78.30;;;;;;6127480;23;20849;-71
2021/03/03 12:07:15;;;;;;;37.97;26.38;;;12.70;79.90;;;;;;6153736;23;20360;-71
2021/03/03 12:09:41;;;;;;;39.38;26.77;;;12.70;80.00;;;;;;6153265;23;20363;-71
2021/03/03 12:12:08;;;;;;;37.65;24.52;;;12.70;80.90;;;;;;6153558;23;20402;-71
2021/03/03 12:14:34;;;;;;;35.28;24.65;;;12.90;80.60;;;;;;6153465;23;20850;-71
2021/03/03 12:17:00;;;;;;;37.10;24.58;;;12.90;81.40;;;;;;6127900;23;20391;-70
2021/03/03 12:19:26;;;;;;;35.25;25.40;;;13.30;77.90;;;;;;6154294;23;20755;-70
2021/03/03 12:21:52;;;;;;;38.70;26.57;;;13.40;80.90;;;;;;6127745;23;20458;-70
2021/03/03 12:24:19;;;;;;;34.90;25.23;;;13.50;78.00;;;;;;6153900;23;20367;-71
2021/03/03 12:26:45;;;;;;;36.38;25.02;;;13.50;76.60;;;;;;6153109;23;20815;-70
2021/03/03 12:29:11;;;;;;;36.47;24.45;;;;;;;;;;6153788;23;20355;-71
2021/03/03 12:31:37;;;;;;;34.42;23.45;;;13.50;76.30;;;;;;6153890;23;20454;-71
2021/03/03 12:34:03;;;;;;;34.90;25.20;;;;;;;;;;6127372;23;20419;-71
2021/03/03 12:36:29;;;;;;;35.15;24.70;;;13.90;77.20;;;;;;6154166;23;20684;-71
2021/03/03 12:38:55;;;;;;;33.65;23.95;;;13.20;85.20;;;;;;6153386;23;20355;-71
2021/03/03 12:41:22;;;;;;;35.88;25.33;;;13.30;83.30;;;;;;6127487;23;20381;-71
2021/03/03 12:43:48;;;;;;;36.20;23.60;;;13.00;82.60;;;;;;6153548;23;20363;-70
2021/03/03 12:46:13;;;;;;;33.90;23.98;;;12.90;81.00;;;;;;6128215;23;20451;-70
2021/03/03 12:48:39;;;;;;;35.65;24.25;;;12.90;79.20;;;;;;6154995;23;20358;-71
2021/03/03 12:51:05;;;;;;;33.07;23.83;;;12.90;77.50;;;;;;6155245;23;20362;-71
2021/03/03 12:53:31;;;;;;;35.67;23.48;;;12.90;77.30;;;;;;6155665;23;20394;-71
2021/03/03 12:55:57;;;;;;;31.77;22.80;;;13.10;77.60;;;;;;6155291;23;20363;-70
2021/03/03 12:58:24;;;;;;;33.72;22.85;;;13.20;76.60;;;;;;6129193;23;20394;-71
2021/03/03 13:00:50;;;;;;;32.92;23.15;;;13.40;76.10;;;;;;6155541;23;20394;-71
2021/03/03 13:03:16;;;;;;;31.92;23.23;;;13.50;74.10;;;;;;6128362;23;20831;-70
2021/03/03 13:05:42;;;;;;;35.17;23.27;;;13.60;73.90;;;;;;6156003;23;20448;-71
2021/03/03 13:08:08;;;;;;;30.27;22.27;;;13.70;65.70;;;;;;6155642;23;20366;-71
2021/03/03 13:10:34;;;;;;;31.88;21.85;;;13.80;62.90;;;;;;6156175;23;20874;-71
2021/03/03 13:13:00;;;;;;;29.15;21.05;;;14.00;63.90;;;;;;6155397;23;20359;-71
2021/03/03 13:15:27;;;;;;;32.58;22.77;;;13.80;62.90;;;;;;6155970;23;20359;-71
2021/03/03 13:17:53;;;;;;;29.45;20.77;;;13.80;70.40;;;;;;6129652;23;20391;-71
2021/03/03 13:20:19;;;;;;;30.00;21.27;;;14.00;62.70;;;;;;6155655;23;20414;-71
2021/03/03 13:22:45;;;;;;;31.63;21.25;;;14.00;62.40;;;;;;6128993;23;20830;-70
2021/03/03 13:25:12;;;;;;;28.35;20.63;;;14.10;60.00;;;;;;6154834;23;20370;-71
2021/03/03 13:27:40;;;;;;;31.43;22.27;;;14.20;58.40;;;;;;6154361;23;20539;-71
2021/03/03 13:30:08;;;;;;;29.13;21.60;;;13.90;59.70;;;;;;6154869;23;20379;-70
2021/03/03 13:32:35;;;;;;;30.83;21.63;;;13.80;59.40;;;;;;6155205;23;20371;-71
2021/03/03 13:35:01;;;;;;;32.83;23.00;;;13.80;60.00;;;;;;6128160;23;20390;-71
2021/03/03 13:37:27;;;;;;;29.70;21.73;;;13.60;58.80;;;;;;6129444;23;20771;-71
2021/03/03 13:39:53;;;;;;;30.27;21.27;;;13.60;58.90;;;;;;6154935;23;20359;-71
2021/03/03 13:42:19;;;;;;;31.75;22.35;;;13.60;59.50;;;;;;6155445;23;20383;-71
2021/03/03 13:44:45;;;;;;;34.50;23.23;;;13.70;59.00;;;;;;6155334;23;20661;-71
2021/03/03 13:47:11;;;;;;;30.58;22.60;;;13.60;60.30;;;;;;6155587;23;20356;-71
2021/03/03 13:49:38;;;;;;;30.60;21.57;;;13.70;59.60;;;;;;6155589;23;20366;-71
2021/03/03 13:52:05;;;;;;;34.95;24.42;;;13.80;61.30;;;;;;6155581;23;20397;-71
2021/03/03 13:54:31;;;;;;;33.72;23.38;;;13.90;61.20;;;;;;6129348;23;20381;-71
2021/03/03 13:56:56;;;;;;;30.55;22.80;;;14.00;60.60;;;;;;6155093;23;20462;-71
2021/03/03 13:59:22;;;;;;;33.08;22.55;;;14.20;60.20;;;;;;6155484;23;20393;-71
2021/03/03 14:01:48;;;;;;;30.25;22.67;;;14.20;60.30;;;;;;6155000;23;20395;-71
2021/03/03 14:04:14;;;;;;;33.10;23.85;;;14.20;60.00;;;;;;6128665;23;20375;-71
2021/03/03 14:06:41;;;;;;;36.17;24.70;;;14.20;58.90;;;;;;6154832;23;20355;-70
2021/03/03 14:09:07;;;;;;;31.13;22.40;;;14.00;60.60;;;;;;6155282;23;20815;-71
2021/03/03 14:11:33;;;;;;;31.58;22.55;;;14.00;59.90;;;;;;6155433;23;20355;-71
2021/03/03 14:13:59;;;;;;;33.42;23.88;;;14.00;59.50;;;;;;6155351;23;20831;-71
2021/03/03 14:16:24;;;;;;;34.90;24.40;;;14.00;60.80;;;;;;6155291;23;20822;-71
2021/03/03 14:18:50;;;;;;;35.70;23.77;;;13.90;61.30;;;;;;6129166;23;20438;-70
2021/03/03 14:21:18;;;;;;;31.15;23.13;;;13.70;61.70;;;;;;6155203;23;20359;-71
2021/03/03 14:23:45;;;;;;;40.72;24.80;;;13.90;60.50;;;;;;6155046;23;20363;-71
2021/03/03 14:26:12;;;;;;;36.80;24.70;;;13.70;62.00;;;;;;6155027;23;20363;-71
2021/03/03 14:28:38;;;;;;;35.00;23.92;;;13.60;62.30;;;;;;6155238;23;20363;-71
2021/03/03 14:31:04;;;;;;;36.95;24.88;;;13.50;62.70;;;;;;6143151;23;20363;-71
2021/03/03 14:33:30;;;;;;;37.47;25.45;;;13.40;62.90;;;;;;6128967;23;20407;-70
2021/03/03 14:35:56;;;;;;;43.53;26.55;;;13.60;62.80;;;;;;6154973;23;20374;-71
2021/03/03 14:38:24;;;;;;;31.42;23.60;;;13.40;64.00;;;;;;6155004;23;20378;-71
2021/03/03 14:40:52;;;;;;;34.28;23.70;;;13.50;64.50;;;;;;6154966;23;20363;-71
2021/03/03 14:43:18;;;;;;;34.25;23.40;;;13.60;63.80;;;;;;6155191;23;20367;-71
2021/03/03 14:45:44;;;;;;;35.00;25.05;;;13.70;63.20;;;;;;6155073;23;20429;-70
2021/03/03 14:48:10;;;;;;;34.20;23.90;;;13.70;63.30;;;;;;6154910;23;20687;-70
2021/03/03 14:50:37;;;;;;;32.03;23.53;;;13.50;64.10;;;;;;6155178;23;20363;-71
2021/03/03 14:53:03;;;;;;;34.63;24.13;;;13.60;63.30;;;;;;6142676;23;20701;-71
2021/03/03 14:55:29;;;;;;;35.65;23.77;;;13.60;63.60;;;;;;6154910;23;20363;-71
2021/03/03 14:57:56;;;;;;;33.67;23.50;;;13.60;64.20;;;;;;6154916;23;20411;-71
2021/03/03 15:00:23;;;;;;;33.63;24.55;;;13.60;64.60;;;;;;6128671;23;20386;-71
2021/03/03 15:02:49;;;;;;;37.47;25.13;;;13.40;64.60;;;;;;6154873;23;20359;-70
2021/03/03 15:05:15;;;;;;;35.08;24.73;;;13.20;64.90;;;;;;6128548;23;20922;-71
2021/03/03 15:07:41;;;;;;;32.95;22.15;;;13.10;66.80;;;;;;6153909;23;20351;-71
2021/03/03 15:10:07;;;;;;;38.75;24.60;;;13.00;67.30;;;;;;6154825;23;20802;-71
2021/03/03 15:12:33;;;;;;;36.35;25.13;;;13.00;67.10;;;;;;6154868;23;20362;-71
2021/03/03 15:15:00;;;;;;;36.42;24.60;;;12.80;67.30;;;;;;6128586;23;20866;-71
2021/03/03 15:17:26;;;;;;;35.58;23.58;;;12.80;68.00;;;;;;6128681;23;20437;-71
2021/03/03 15:19:52;;;;;;;32.80;23.20;;;12.90;68.20;;;;;;6154747;23;20355;-71
2021/03/03 15:22:18;;;;;;;36.17;24.47;;;13.00;67.70;;;;;;6154573;23;20369;-71
2021/03/03 15:24:44;;;;;;;37.40;24.53;;;12.90;68.00;;;;;;6154651;23;20881;-71
2021/03/03 15:27:11;;;;;;;37.15;23.08;;;12.90;68.10;;;;;;6154616;23;20355;-71
2021/03/03 15:29:37;;;;;;;31.65;22.83;;;13.00;68.00;;;;;;6154596;23;20359;-71
2021/03/03 15:32:05;;;;;;;29.92;22.33;;;13.10;67.90;;;;;;6154538;23;20370;-71
2021/03/03 15:34:32;;;;;;;34.22;23.75;;;13.10;68.20;;;;;;6154236;23;20374;-72
2021/03/03 15:36:58;;;;;;;32.60;23.60;;;13.10;68.60;;;;;;6154411;23;20383;-71
2021/03/03 15:39:24;;;;;;;32.17;22.98;;;13.10;69.00;;;;;;6154499;23;20370;-71
2021/03/03 15:41:52;;;;;;;38.05;26.30;;;13.00;69.10;;;;;;6154553;23;20363;-71
2021/03/03 15:44:18;;;;;;;35.13;24.95;;;13.00;69.80;;;;;;6128338;23;20390;-71
2021/03/03 15:46:44;;;;;;;33.28;24.67;;;12.80;70.10;;;;;;6154633;23;20359;-71
2021/03/03 15:49:10;;;;;;;38.40;26.73;;;12.80;69.90;;;;;;6154570;23;20752;-71
2021/03/03 15:51:36;;;;;;;34.92;23.80;;;12.80;70.50;;;;;;6128345;23;20382;-70
2021/03/03 15:54:02;;;;;;;35.53;26.07;;;12.80;70.40;;;;;;6154457;23;20398;-71
2021/03/03 15:56:28;;;;;;;36.13;26.30;;;12.70;70.20;;;;;;6128261;23;20764;-71
2021/03/03 15:58:57;;;;;;;34.38;25.13;;;12.70;70.30;;;;;;6154195;23;20386;-71
2021/03/03 16:01:23;;;;;;;34.50;24.35;;;12.60;70.20;;;;;;6154159;23;20412;-69
2021/03/03 16:03:49;;;;;;;34.03;24.08;;;12.60;70.10;;;;;;6154362;23;20355;-70
2021/03/03 16:06:16;;;;;;;34.45;24.63;;;12.70;69.70;;;;;;6154378;23;20360;-70
2021/03/03 16:08:41;;;;;;;38.08;26.50;;;12.70;69.70;;;;;;6154491;23;20450;-69
2021/03/03 16:11:07;;;;;;;34.83;24.40;;;12.60;70.60;;;;;;6154348;23;20383;-70
2021/03/03 16:13:33;;;;;;;33.35;24.42;;;12.50;70.90;;;;;;6154198;23;20351;-70
2021/03/03 16:15:59;;;;;;;34.25;24.30;;;12.40;70.60;;;;;;6154279;23;20398;-70
2021/03/03 16:18:25;;;;;;;34.38;24.45;;;12.50;70.50;;;;;;6154192;23;20466;-69
2021/03/03 16:20:51;;;;;;;32.38;24.30;;;12.50;70.70;;;;;;6156033;23;20720;-70
2021/03/03 16:23:18;;;;;;;32.67;24.27;;;12.50;70.80;;;;;;6156376;23;20366;-70
2021/03/03 16:25:44;;;;;;;41.40;28.87;;;12.40;70.60;;;;;;6156256;23;20551;-69
2021/03/03 16:28:11;;;;;;;38.55;26.92;;;;;;;;;;6156236;23;20383;-70
2021/03/03 16:30:37;;;;;;;38.80;28.17;;;;;;;;;;6156154;23;20362;-70
2021/03/03 16:33:04;;;;;;;33.50;25.00;;;;;;;;;;6156185;23;20367;-70
2021/03/03 16:35:30;;;;;;;32.33;24.17;;;;;;;;;;6156019;23;20380;-70
2021/03/03 16:37:57;;;;;;;32.20;24.97;;;;;;;;;;6156065;23;20390;-70
2021/03/03 16:40:26;;;;;;;35.17;24.83;;;;;;;;;;6130139;23;20421;-70
2021/03/03 16:42:52;;;;;;;34.47;25.05;;;;;;;;;;6156054;23;20371;-69
2021/03/03 16:45:19;;;;;;;33.87;26.07;;;;;;;;;;6156162;23;20808;-70
2021/03/03 16:50:32;;;;;;;34.00;24.50;;;12.40;70.80;;;;;;6156080;23;20442;-70
2021/03/03 16:52:58;;;;;;;35.38;25.73;;;11.80;78.60;;;;;;6129890;23;20429;-70
2021/03/03 16:55:27;;;;;;;35.00;25.48;;;11.70;78.60;;;;;;6129803;23;20379;-70
2021/03/03 16:57:53;;;;;;;36.80;26.75;;;11.70;77.90;;;;;;6155984;23;20470;-70
2021/03/03 17:00:20;;;;;;;33.70;24.02;;;11.60;79.40;;;;;;6156053;23;20363;-70
2021/03/03 17:02:46;;;;;;;31.55;25.10;;;11.60;79.40;;;;;;6154565;23;20369;-70
2021/03/03 17:05:12;;;;;;;36.00;25.52;;;11.50;79.40;;;;;;6156516;23;20387;-70
2021/03/03 17:07:38;;;;;;;34.50;25.17;;;;;;;;;;6155941;23;20811;-70
2021/03/03 17:10:05;;;;;;;32.13;24.90;;;;;;;;;;6128535;23;20410;-70
2021/03/03 17:12:32;;;;;;;37.95;25.83;;;;;;;;;;6155542;23;20363;-70
2021/03/03 17:14:58;;;;;;;35.55;25.83;;;11.40;79.10;;;;;;6154859;23;20410;-69
2021/03/03 17:17:24;;;;;;;39.47;28.37;;;11.10;81.30;;;;;;6155062;23;20382;-70
2021/03/03 17:19:50;;;;;;;42.80;29.85;;;10.90;82.50;;;;;;6154505;23;20365;-69
2021/03/03 17:22:16;;;;;;;37.00;26.52;;;10.60;84.60;;;;;;6153244;23;20446;-69
2021/03/03 17:24:42;;;;;;;34.75;26.55;;;10.50;84.80;;;;;;6152778;23;20382;-69
2021/03/03 17:27:09;;;;;;;39.07;27.70;;;10.50;85.30;;;;;;6154994;23;20355;-70
2021/03/03 17:29:36;;;;;;;34.65;26.25;;;10.50;85.80;;;;;;6154685;23;20684;-70
2021/03/03 17:32:03;;;;;;;35.97;26.67;;;10.50;86.10;;;;;;6152824;23;20398;-70
2021/03/03 17:34:29;;;;;;;38.65;28.35;;;10.40;86.50;;;;;;6126851;23;20478;-69
2021/03/03 17:36:56;;;;;;;39.38;27.98;;;;;;;;;;6154106;23;20407;-70
2021/03/03 17:39:21;;;;;;;35.63;25.75;;;10.30;87.40;;;;;;6154705;23;20354;-70
2021/03/03 17:41:47;;;;;;;34.00;25.45;;;10.20;88.00;;;;;;6151255;23;20445;-69
2021/03/03 17:44:13;;;;;;;35.40;25.57;;;10.20;88.10;;;;;;6155106;23;20550;-70
2021/03/03 17:46:40;;;;;;;36.10;26.08;;;10.10;88.40;;;;;;6155347;23;20367;-71
2021/03/03 17:49:06;;;;;;;37.33;27.05;;;10.00;89.20;;;;;;6155127;23;20804;-70
2021/03/03 17:51:32;;;;;;;36.80;26.73;;;9.90;90.10;;;;;;6155170;23;20406;-70
2021/03/03 17:53:58;;;;;;;35.03;26.17;;;9.80;90.50;;;;;;6155521;23;20362;-70
2021/03/03 17:56:24;;;;;;;37.47;27.33;;;9.70;90.80;;;;;;6154324;23;20367;-70
2021/03/03 17:58:50;;;;;;;38.13;27.77;;;9.70;91.40;;;;;;6154837;23;20367;-70
2021/03/03 18:01:16;;;;;;;35.38;26.65;;;9.60;91.60;;;;;;6155012;23;20359;-69
2021/03/03 18:03:43;;;;;;;38.17;26.92;;;9.50;92.20;;;;;;6155160;23;20671;-70
2021/03/03 18:06:09;;;;;;;34.60;25.85;;;9.40;92.70;;;;;;6154500;23;20359;-70
2021/03/03 18:08:35;;;;;;;38.15;27.33;;;9.40;92.80;;;;;;6154419;23;20438;-69
2021/03/03 18:11:00;;;;;;;39.87;28.40;;;9.40;92.90;;;;;;6128660;23;20800;-70
2021/03/03 18:13:27;;;;;;;37.95;27.60;;;9.30;93.50;;;;;;6154521;23;20414;-71
2021/03/03 18:15:53;;;;;;;40.47;28.05;;;9.30;93.40;;;;;;6129112;23;20381;-70
2021/03/03 18:18:19;;;;;;;35.63;27.45;;;9.30;93.60;;;;;;6128969;23;20951;-70
2021/03/03 18:20:45;;;;;;;37.60;27.38;;;9.20;93.90;;;;;;6129045;23;20378;-70
2021/03/03 18:23:11;;;;;;;36.97;27.13;;;9.20;93.90;;;;;;6129263;23;20450;-70
2021/03/03 18:25:37;;;;;;;37.55;27.90;;;9.10;93.80;;;;;;6154700;23;20688;-70
2021/03/03 18:28:04;;;;;;;38.03;27.88;;;9.10;93.90;;;;;;6153777;23;20355;-70
2021/03/03 18:30:30;;;;;;;40.53;29.52;;;9.20;95.40;;;;;;6155255;23;20795;-70
2021/03/03 18:32:56;;;;;;;37.17;27.50;;;9.00;94.00;;;;;;6128683;23;20407;-70
2021/03/03 18:35:22;;;;;;;36.00;26.87;;;8.90;94.30;;;;;;6154491;23;20715;-70
2021/03/03 18:37:50;;;;;;;37.42;26.45;;;8.90;94.20;;;;;;6128814;23;20963;-70
2021/03/03 18:40:17;;;;;;;38.35;27.83;;;8.90;94.00;;;;;;6128773;23;20774;-70
2021/03/03 18:42:54;;;;;;;39.47;28.98;;;8.80;93.90;;;;;;6127835;23;20413;-70
2021/03/03 18:45:25;;;;;;;36.00;28.00;;;8.80;94.00;;;;;;6154961;23;20359;-70
2021/03/03 18:47:51;;;;;;;39.30;28.23;;;;;;;;;;6128816;23;20378;-70
2021/03/03 18:50:18;;;;;;;39.57;29.83;;;;;;;;;;6154720;23;20438;-70
2021/03/03 18:52:44;;;;;;;39.60;28.52;;;8.80;94.10;;;;;;6154649;23;20418;-71
2021/03/03 18:55:12;;;;;;;33.35;24.52;;;8.70;94.60;;;;;;6128817;23;20407;-70
2021/03/03 18:57:38;;;;;;;32.83;21.70;;;8.80;96.30;;;;;;6154793;23;20473;-70
2021/03/03 19:00:06;;;;;;;30.13;21.45;;;;;;;;;;6153786;23;20473;-70
2021/03/03 19:02:32;;;;;;;28.80;21.20;;;;;;;;;;6152393;23;20823;-70
2021/03/03 19:04:58;;;;;;;29.63;21.43;;;8.20;99.90;;;;;;6153566;23;20486;-70
2021/03/03 19:07:24;;;;;;;31.40;21.08;;;8.10;95.70;;;;;;6153754;23;20367;-70
2021/03/03 19:09:51;;;;;;;31.92;22.17;;;8.10;95.90;;;;;;6153340;23;20359;-70
2021/03/03 19:12:18;;;;;;;40.63;25.48;;;8.00;95.80;;;;;;6127359;23;20379;-70
2021/03/03 19:14:43;;;;;;;33.45;23.55;;;8.00;95.70;;;;;;6153312;23;20355;-70
2021/03/03 19:17:11;;;;;;;37.83;25.53;;;7.90;96.10;;;;;;6128217;23;20393;-71
2021/03/03 19:19:38;;;;;;;35.70;25.42;;;7.90;95.90;;;;;;6154305;23;20398;-70
2021/03/03 19:22:05;;;;;;;39.95;26.70;;;7.90;96.40;;;;;;6154439;23;20453;-70
2021/03/03 19:24:30;;;;;;;43.93;29.37;;;7.80;96.30;;;;;;6154454;23;20433;-70
2021/03/03 19:26:57;;;;;;;45.17;33.00;;;;;;;;;;6154264;23;20819;-70
2021/03/03 19:29:23;;;;;;;40.38;27.83;;;7.60;97.30;;;;;;6153961;23;20366;-70
2021/03/03 19:31:50;;;;;;;44.35;30.75;;;7.60;97.50;;;;;;6154071;23;20882;-70
2021/03/03 19:34:16;;;;;;;40.25;29.42;;;7.60;97.40;;;;;;6154257;23;20410;-70
2021/03/03 19:36:42;;;;;;;45.93;31.00;;;7.60;97.90;;;;;;6127996;23;20378;-70
2021/03/03 19:39:08;;;;;;;50.40;33.70;;;7.60;97.60;;;;;;6152936;23;20358;-70
2021/03/03 19:41:34;;;;;;;48.67;32.40;;;7.60;97.80;;;;;;6128223;23;20399;-70
2021/03/03 19:44:00;;;;;;;48.33;31.42;;;7.60;97.70;;;;;;6154376;23;20363;-72
2021/03/03 19:46:27;;;;;;;50.73;33.57;;;7.60;97.50;;;;;;6153858;23;20378;-70
2021/03/03 19:48:53;;;;;;;49.42;33.13;;;7.60;97.60;;;;;;6128371;23;20756;-70
2021/03/03 19:51:29;;;;;;;55.65;37.35;;;7.60;97.80;;;;;;6128144;23;20379;-70
2021/03/03 19:53:55;;;;;;;48.00;33.53;;;7.50;98.40;;;;;;6153907;23;20355;-70
2021/03/03 19:56:21;;;;;;;46.33;31.55;;;7.50;98.20;;;;;;6153421;23;20389;-69
2021/03/03 19:58:47;;;;;;;38.35;27.17;;;7.40;98.30;;;;;;6153523;23;20466;-70
2021/03/03 20:01:13;;;;;;;45.17;30.58;;;7.40;98.30;;;;;;6128229;23;20453;-72
2021/03/03 20:03:40;;;;;;;45.10;29.13;;;7.30;98.80;;;;;;6154042;23;20405;-70
2021/03/03 20:06:06;;;;;;;45.60;29.92;;;7.20;99.30;;;;;;6154308;23;20691;-70
2021/03/03 20:08:32;;;;;;;40.50;28.30;;;7.10;99.30;;;;;;6154235;23;20355;-69
2021/03/03 20:10:58;;;;;;;38.40;26.80;;;7.10;99.30;;;;;;6154333;23;20827;-70
2021/03/03 20:13:24;;;;;;;42.50;28.80;;;;;;;;;;6153272;23;20406;-70
2021/03/03 20:15:50;;;;;;;36.63;26.00;;;7.00;99.90;;;;;;6153275;23;20371;-69
2021/03/03 20:18:16;;;;;;;41.22;28.70;;;7.00;99.90;;;;;;6127710;23;20417;-70
2021/03/03 20:20:42;;;;;;;35.50;25.90;;;7.00;99.90;;;;;;6153693;23;20362;-70
2021/03/03 20:23:08;;;;;;;43.47;28.92;;;6.90;99.90;;;;;;6153928;23;20402;-70